Time;durP1;ratioP1;P1;durP2;ratioP2;P2;SDS_P1;SDS_P2;PMS_P1;PMS_P2;Temp;Humidity;BMP_temperature;BMP_pressure;BME280_temperature;BME280_humidity;BME280_pressure;Samples;Min_cycle;Max_cycle;Signal;HPM_P1;HPM_P2
2023/07/13 00:00:53;;;;;;;6.82;1.90;;;;;;;15.13;100.00;101259.22;5198923;28;21258;-72
2023/07/13 00:03:24;;;;;;;6.45;1.90;;;;;;;15.24;100.00;101265.34;5200554;28;20404;-72
2023/07/13 00:06:00;;;;;;;6.50;1.63;;;;;;;15.11;100.00;101270.16;5197632;28;20117;-72
2023/07/13 00:08:32;;;;;;;9.07;2.40;;;;;;;15.02;100.00;101271.81;5204538;28;20060;-72
2023/07/13 00:11:04;;;;;;;5.50;2.20;;;;;;;14.99;100.00;101271.22;5198031;28;20046;-72
2023/07/13 00:13:38;;;;;;;5.95;2.10;;;;;;;14.97;100.00;101262.44;5198776;28;20369;-73
2023/07/13 00:16:11;;;;;;;5.78;1.90;;;;;;;15.03;100.00;101257.41;5201303;28;20555;-72
2023/07/13 00:18:43;;;;;;;7.75;1.80;;;;;;;15.03;100.00;101256.53;5206654;28;20033;-72
2023/07/13 00:21:14;;;;;;;8.02;2.10;;;;;;;15.01;100.00;101255.81;5204771;28;20038;-72
2023/07/13 00:23:45;;;;;;;9.35;2.40;;;;;;;14.98;100.00;101264.16;5210679;28;20037;-72
2023/07/13 00:26:17;;;;;;;7.53;1.52;;;;;;;14.92;100.00;101262.88;5202131;28;20038;-72
2023/07/13 00:28:49;;;;;;;8.10;2.35;;;;;;;14.94;100.00;101254.63;5199324;28;21785;-71
2023/07/13 00:31:21;;;;;;;11.57;4.82;;;;;;;14.88;100.00;101253.34;5202906;28;20033;-71
2023/07/13 00:33:52;;;;;;;9.95;4.95;;;;;;;14.84;100.00;101258.16;5194379;28;20453;-72
2023/07/13 00:36:23;;;;;;;11.70;5.40;;;;;;;14.83;100.00;101266.34;5201614;28;20296;-71
2023/07/13 00:38:55;;;;;;;9.55;3.28;;;;;;;14.79;100.00;101267.63;5202699;28;20380;-72
2023/07/13 00:41:26;;;;;;;7.70;3.13;;;;;;;14.74;100.00;101275.22;5201937;28;20542;-72
2023/07/13 00:43:58;;;;;;;8.20;3.10;;;;;;;14.87;100.00;101274.00;5200220;28;20038;-72
2023/07/13 00:46:32;;;;;;;7.50;2.13;;;;;;;14.80;100.00;101271.97;5201152;28;20041;-72
2023/07/13 00:49:07;;;;;;;6.22;2.30;;;;;;;14.72;100.00;101274.50;5198991;28;20039;-71
2023/07/13 00:51:50;;;;;;;9.20;2.97;;;;;;;14.70;100.00;101277.31;5201649;28;20083;-71
2023/07/13 00:54:29;;;;;;;7.40;2.08;;;;;;;14.80;100.00;101275.50;5194393;28;20038;-71
2023/07/13 00:57:05;;;;;;;6.05;1.95;;;;;;;14.67;100.00;101278.44;5196801;28;20064;-71
2023/07/13 00:59:40;;;;;;;5.80;2.00;;;;;;;14.62;100.00;101274.44;5199908;28;20037;-71
2023/07/13 01:02:12;;;;;;;8.45;2.75;;;;;;;14.74;100.00;101276.06;5200834;28;20038;-71
2023/07/13 01:04:44;;;;;;;8.20;2.60;;;;;;;14.65;100.00;101272.34;5199404;28;20392;-72
2023/07/13 01:07:16;;;;;;;14.65;6.72;;;;;;;14.62;100.00;101274.44;5200313;28;20034;-72
2023/07/13 01:09:47;;;;;;;21.40;10.18;;;;;;;14.66;100.00;101271.34;5200106;28;20753;-71
2023/07/13 01:12:19;;;;;;;26.55;15.10;;;;;;;14.66;100.00;101268.66;5200182;28;20033;-72
2023/07/13 01:14:58;;;;;;;27.45;14.48;;;;;;;14.70;100.00;101271.94;5203307;28;20468;-72
2023/07/13 01:17:31;;;;;;;26.58;13.95;;;;;;;14.75;100.00;101275.09;5201467;28;20029;-72
2023/07/13 01:20:03;;;;;;;24.55;12.05;;;;;;;14.59;100.00;101286.28;5202103;28;20084;-72
2023/07/13 01:22:34;;;;;;;21.15;11.63;;;;;;;14.61;100.00;101284.34;5200643;28;20030;-71
2023/07/13 01:25:06;;;;;;;25.17;13.07;;;;;;;14.68;100.00;101274.75;5205604;28;20555;-71
2023/07/13 01:27:41;;;;;;;23.30;12.45;;;;;;;14.60;100.00;101279.94;5201480;28;20104;-72
2023/07/13 01:30:12;;;;;;;21.77;11.85;;;;;;;14.65;100.00;101293.84;5196107;28;20025;-71
2023/07/13 01:32:44;;;;;;;22.08;12.45;;;;;;;14.62;100.00;101282.50;5201534;28;20392;-71
2023/07/13 01:35:16;;;;;;;22.25;12.45;;;;;;;14.70;100.00;101288.06;5204648;28;20185;-72
2023/07/13 01:37:48;;;;;;;26.55;13.38;;;;;;;14.48;100.00;101287.19;5201827;28;20030;-72
2023/07/13 01:40:20;;;;;;;26.40;15.68;;;;;;;14.53;100.00;101284.09;5200568;28;20042;-71
2023/07/13 01:42:52;;;;;;;30.45;18.00;;;;;;;14.53;100.00;101292.16;5204511;28;20026;-72
2023/07/13 01:45:24;;;;;;;40.05;21.20;;;;;;;14.48;100.00;101299.78;5208033;28;20037;-71
2023/07/13 01:47:55;;;;;;;37.40;22.52;;;;;;;14.56;100.00;101299.13;5197760;28;20058;-72
2023/07/13 01:50:27;;;;;;;37.47;23.45;;;;;;;14.52;100.00;101295.84;5206597;28;20043;-72
2023/07/13 01:53:02;;;;;;;33.15;20.42;;;;;;;14.52;100.00;101302.06;5199258;28;20026;-72
2023/07/13 01:55:35;;;;;;;37.00;21.98;;;;;;;14.59;100.00;101294.34;5204467;28;20153;-72
2023/07/13 01:58:06;;;;;;;38.92;21.40;;;;;;;14.47;100.00;101304.28;5198262;28;20049;-72
2023/07/13 02:00:38;;;;;;;37.20;19.63;;;;;;;14.45;100.00;101292.81;5210954;28;20717;-72
2023/07/13 02:03:09;;;;;;;34.33;19.45;;;;;;;14.42;100.00;101301.16;5196489;28;20038;-72
2023/07/13 02:05:41;;;;;;;30.75;16.02;;;;;;;14.39;100.00;101296.03;5200622;28;20040;-71
2023/07/13 02:08:12;;;;;;;27.80;15.10;;;;;;;14.43;100.00;101296.63;5207471;28;20054;-72
2023/07/13 02:10:44;;;;;;;26.38;13.15;;;;;;;14.34;100.00;101310.84;5215100;28;20021;-71
2023/07/13 02:13:15;;;;;;;21.63;11.35;;;;;;;14.30;100.00;101303.06;5203123;28;20045;-72
2023/07/13 02:15:50;;;;;;;17.25;8.90;;;;;;;14.44;100.00;101309.94;5205183;28;20029;-72
2023/07/13 02:18:22;;;;;;;14.25;7.30;;;;;;;14.34;100.00;101313.53;5201329;28;20108;-72
2023/07/13 02:20:53;;;;;;;13.10;5.00;;;;;;;14.22;100.00;101305.53;5206299;28;20395;-72
2023/07/13 02:23:25;;;;;;;12.25;5.10;;;;;;;14.27;100.00;101307.84;5200260;28;20022;-71
2023/07/13 02:25:57;;;;;;;14.95;5.00;;;;;;;14.35;100.00;101313.41;5199154;28;20659;-71
2023/07/13 02:28:28;;;;;;;11.57;4.60;;;;;;;14.21;100.00;101311.00;5203596;28;20022;-71
2023/07/13 02:31:09;;;;;;;13.32;4.78;;;;;;;14.29;100.00;101305.88;5200544;28;20030;-73
2023/07/13 02:33:40;;;;;;;13.85;6.22;;;;;;;14.07;100.00;101306.81;5207952;28;20049;-72
2023/07/13 02:36:13;;;;;;;18.63;8.15;;;;;;;14.16;100.00;101306.06;5200402;28;20042;-72
2023/07/13 02:38:45;;;;;;;28.13;11.63;;;;;;;14.15;100.00;101309.69;5199621;28;20029;-72
2023/07/13 02:41:16;;;;;;;30.75;13.15;;;;;;;14.16;100.00;101313.25;5199291;28;20049;-72
2023/07/13 02:43:48;;;;;;;28.42;13.45;;;;;;;14.10;100.00;101311.94;5209948;28;20038;-72
2023/07/13 02:46:20;;;;;;;24.92;11.10;;;;;;;14.11;100.00;101310.94;5209837;28;20926;-71
2023/07/13 02:48:53;;;;;;;27.48;11.73;;;;;;;14.15;100.00;101315.06;5199642;28;20048;-71
2023/07/13 02:51:24;;;;;;;26.00;10.77;;;;;;;14.07;100.00;101310.34;5204438;28;20392;-71
2023/07/13 02:53:56;;;;;;;20.70;8.88;;;;;;;14.01;100.00;101310.03;5199512;28;20255;-71
2023/07/13 02:56:30;;;;;;;23.33;8.43;;;;;;;14.02;100.00;101306.38;5200372;28;20362;-71
2023/07/13 02:59:02;;;;;;;21.35;8.75;;;;;;;13.96;100.00;101304.19;5200342;28;20018;-71
2023/07/13 03:01:35;;;;;;;23.00;8.02;;;;;;;13.98;100.00;101307.59;5196981;28;20025;-72
2023/07/13 03:04:06;;;;;;;18.42;8.02;;;;;;;13.91;100.00;101301.91;5200292;28;20476;-72
2023/07/13 03:06:38;;;;;;;20.85;7.93;;;;;;;14.00;100.00;101308.31;5202936;28;20172;-72
2023/07/13 03:09:09;;;;;;;19.00;9.00;;;;;;;13.90;100.00;101310.91;5193769;28;20124;-72
2023/07/13 03:11:41;;;;;;;22.30;8.65;;;;;;;13.87;100.00;101312.03;5199326;28;20049;-72
2023/07/13 03:14:12;;;;;;;21.75;8.48;;;;;;;13.86;100.00;101314.81;5199005;28;20038;-72
2023/07/13 03:16:43;;;;;;;24.50;8.60;;;;;;;13.84;100.00;101314.94;5194825;28;20835;-72
2023/07/13 03:19:15;;;;;;;20.42;7.57;;;;;;;13.85;100.00;101313.97;5198598;28;20276;-72
2023/07/13 03:21:46;;;;;;;19.20;7.53;;;;;;;13.92;100.00;101314.31;5202049;28;20340;-72
2023/07/13 03:24:18;;;;;;;20.40;8.27;;;;;;;14.05;100.00;101319.50;5197678;28;20048;-72
2023/07/13 03:26:49;;;;;;;19.73;8.10;;;;;;;13.90;100.00;101322.50;5196904;28;20431;-72
2023/07/13 03:29:21;;;;;;;19.48;8.07;;;;;;;13.89;100.00;101320.78;5196819;28;20479;-73
2023/07/13 03:31:52;;;;;;;22.30;9.38;;;;;;;13.86;100.00;101321.03;5196529;28;20029;-72
2023/07/13 03:34:24;;;;;;;21.52;9.15;;;;;;;13.86;100.00;101329.09;5194940;28;20388;-72
2023/07/13 03:36:56;;;;;;;24.05;10.35;;;;;;;14.02;100.00;101333.22;5197683;28;20030;-72
2023/07/13 03:39:27;;;;;;;26.48;11.07;;;;;;;13.91;100.00;101331.41;5197474;28;20049;-72
2023/07/13 03:41:58;;;;;;;26.35;11.73;;;;;;;13.88;100.00;101334.31;5198515;28;20480;-72
2023/07/13 03:44:30;;;;;;;22.48;10.98;;;;;;;14.07;100.00;101329.13;5197117;28;20038;-72
2023/07/13 03:47:01;;;;;;;29.08;10.77;;;;;;;13.84;100.00;101333.72;5192961;28;20021;-72
2023/07/13 03:49:33;;;;;;;21.58;7.82;;;;;;;13.89;100.00;101339.56;5195236;28;20121;-72
2023/07/13 03:52:05;;;;;;;13.50;5.72;;;;;;;13.90;100.00;101341.28;5193488;28;20041;-72
2023/07/13 03:54:36;;;;;;;17.00;6.68;;;;;;;13.85;100.00;101345.31;5196176;28;20384;-72
2023/07/13 03:57:08;;;;;;;10.73;4.72;;;;;;;13.94;100.00;101339.22;5197131;28;20079;-72
2023/07/13 03:59:40;;;;;;;14.00;4.05;;;;;;;13.90;100.00;101343.09;5199036;28;20898;-72
2023/07/13 04:02:11;;;;;;;9.98;3.80;;;;;;;13.86;100.00;101352.38;5197011;28;20030;-72
2023/07/13 04:04:43;;;;;;;10.75;3.25;;;;;;;13.91;100.00;101351.03;5195999;28;20112;-72
2023/07/13 04:07:15;;;;;;;9.60;3.57;;;;;;;13.91;100.00;101360.91;5159657;28;1225559;-72
2023/07/13 04:09:46;;;;;;;12.00;3.60;;;;;;;13.89;100.00;101361.03;5202700;28;20492;-72
2023/07/13 04:12:18;;;;;;;13.05;3.92;;;;;;;13.94;100.00;101366.03;5205830;28;20133;-72
2023/07/13 04:14:50;;;;;;;9.50;4.07;;;;;;;13.94;100.00;101360.66;5206872;28;20095;-72
2023/07/13 04:17:21;;;;;;;12.68;4.82;;;;;;;14.06;100.00;101374.91;5194142;28;20022;-72
2023/07/13 04:19:52;;;;;;;14.27;4.97;;;;;;;14.01;100.00;101377.94;5199927;28;20125;-72
2023/07/13 04:22:24;;;;;;;15.60;5.22;;;;;;;14.15;100.00;101374.09;5198206;28;20118;-72
2023/07/13 04:24:55;;;;;;;17.20;6.78;;;;;;;14.18;100.00;101373.88;5203429;28;20116;-72
2023/07/13 04:27:28;;;;;;;19.80;7.90;;;;;;;14.26;100.00;101381.28;5199879;28;20030;-72
2023/07/13 04:30:00;;;;;;;17.60;6.43;;;;;;;14.35;100.00;101385.03;5196139;28;20408;-72
2023/07/13 04:32:31;;;;;;;16.13;6.90;;;;;;;14.32;100.00;101370.91;5196638;28;20029;-72
2023/07/13 04:35:04;;;;;;;15.98;6.20;;;;;;;14.29;100.00;101368.44;5200138;28;20492;-72
2023/07/13 04:37:35;;;;;;;16.38;6.07;;;;;;;14.34;100.00;101370.72;5206942;28;20037;-72
2023/07/13 04:40:11;;;;;;;17.33;6.35;;;;;;;14.53;100.00;101378.09;5195646;28;20038;-72
2023/07/13 04:42:44;;;;;;;14.98;5.82;;;;;;;14.61;100.00;101389.09;5203143;28;20083;-72
2023/07/13 04:45:17;;;;;;;13.98;6.78;;;;;;;14.52;100.00;101382.63;5201978;28;20029;-72
2023/07/13 04:47:48;;;;;;;19.90;7.30;;;;;;;14.73;100.00;101386.31;5198270;28;20038;-72
2023/07/13 04:50:22;;;;;;;16.58;6.95;;;;;;;14.63;100.00;101391.63;5194700;28;20405;-72
2023/07/13 04:52:54;;;;;;;19.38;7.45;;;;;;;14.70;100.00;101393.66;5202558;28;20032;-72
2023/07/13 04:55:29;;;;;;;19.30;8.13;;;;;;;14.89;100.00;101389.41;5197511;28;20558;-72
2023/07/13 04:58:02;;;;;;;20.60;8.65;;;;;;;14.85;100.00;101394.19;5194908;28;20017;-72
2023/07/13 05:00:33;;;;;;;20.00;8.60;;;;;;;14.96;100.00;101393.28;5202490;28;20049;-72
2023/07/13 05:03:05;;;;;;;23.08;9.27;;;;;;;14.98;100.00;101393.97;5205686;28;20029;-72
2023/07/13 05:05:36;;;;;;;20.80;8.45;;;;;;;15.17;100.00;101392.38;5206230;28;20049;-72
2023/07/13 05:08:08;;;;;;;21.10;9.32;;;;;;;15.14;100.00;101406.09;5212542;28;20046;-72
2023/07/13 05:10:39;;;;;;;21.65;9.80;;;;;;;15.23;100.00;101392.69;5204301;28;20042;-72
2023/07/13 05:13:11;;;;;;;21.08;9.38;;;;;;;15.26;100.00;101405.88;5208683;28;20037;-72
2023/07/13 05:15:42;;;;;;;24.15;10.02;;;;;;;15.31;100.00;101407.31;5210080;28;20503;-72
2023/07/13 05:18:14;;;;;;;26.08;10.43;;;;;;;15.44;100.00;101399.88;5214235;28;20021;-72
2023/07/13 05:20:45;;;;;;;21.67;9.40;;;;;;;15.50;100.00;101410.06;5203424;28;20064;-72
2023/07/13 05:23:17;;;;;;;19.38;10.30;;;;;;;15.57;100.00;101410.38;5207079;28;20033;-72
2023/07/13 05:25:48;;;;;;;21.83;9.77;;;;;;;15.61;100.00;101414.47;5200059;28;20641;-72
2023/07/13 05:28:21;;;;;;;23.63;10.55;;;;;;;15.66;100.00;101413.09;5207315;28;20076;-72
2023/07/13 05:30:53;;;;;;;19.50;10.07;;;;;;;15.71;100.00;101425.31;5210973;28;20041;-72
2023/07/13 05:33:25;;;;;;;23.55;9.82;;;;;;;15.73;100.00;101426.03;5210551;28;20069;-72
2023/07/13 05:35:57;;;;;;;23.55;10.00;;;;;;;15.78;100.00;101424.66;5210007;28;20441;-72
2023/07/13 05:38:28;;;;;;;26.50;9.82;;;;;;;15.92;100.00;101427.94;5201447;28;20022;-72
2023/07/13 05:41:00;;;;;;;22.63;9.95;;;;;;;15.92;100.00;101428.78;5211813;28;20046;-72
2023/07/13 05:43:32;;;;;;;21.70;9.82;;;;;;;15.99;100.00;101423.69;5210722;28;20037;-73
2023/07/13 05:46:03;;;;;;;23.88;10.80;;;;;;;16.10;100.00;101420.03;5211330;28;20039;-72
2023/07/13 05:48:35;;;;;;;19.13;10.35;;;;;;;16.14;100.00;101419.59;5193994;28;21199;-73
2023/07/13 05:51:06;;;;;;;24.73;11.10;;;;;;;16.18;100.00;101429.09;5202811;28;20060;-72
2023/07/13 05:53:37;;;;;;;22.92;10.55;;;;;;;16.24;100.00;101428.56;5208121;28;20026;-72
2023/07/13 05:56:09;;;;;;;24.67;10.38;;;;;;;16.32;100.00;101433.25;5200638;28;20042;-72
2023/07/13 05:58:41;;;;;;;23.95;9.98;;;;;;;16.36;100.00;101433.81;5204638;28;20023;-72
2023/07/13 06:01:14;;;;;;;23.02;10.75;;;;;;;16.39;100.00;101428.13;5205218;28;20417;-72
2023/07/13 06:03:47;;;;;;;28.73;11.82;;;;;;;16.44;100.00;101436.66;5197517;28;20365;-73
2023/07/13 06:06:18;;;;;;;23.92;11.05;;;;;;;16.62;100.00;101440.31;5209670;28;20053;-72
2023/07/13 06:08:49;;;;;;;25.90;11.30;;;;;;;16.70;100.00;101441.47;5203725;28;20137;-73
2023/07/13 06:11:25;;;;;;;20.95;11.10;;;;;;;16.94;100.00;101447.28;5196455;28;20034;-73
2023/07/13 06:13:57;;;;;;;28.10;10.60;;;;;;;16.98;100.00;101450.56;5202743;28;20148;-73
2023/07/13 06:16:28;;;;;;;22.67;9.88;;;;;;;17.01;100.00;101450.28;5198477;28;20069;-72
2023/07/13 06:19:00;;;;;;;20.00;10.43;;;;;;;17.03;100.00;101449.13;5200116;28;20097;-73
2023/07/13 06:21:31;;;;;;;23.20;11.02;;;;;;;17.09;100.00;101458.47;5199401;28;20400;-73
2023/07/13 06:24:03;;;;;;;21.13;11.15;;;;;;;17.13;100.00;101453.66;5202740;28;20136;-72
2023/07/13 06:26:34;;;;;;;24.85;10.93;;;;;;;17.17;100.00;101458.59;5205847;28;20040;-73
2023/07/13 06:29:06;;;;;;;27.40;12.20;;;;;;;17.20;100.00;101457.44;5204071;28;20396;-72
2023/07/13 06:31:37;;;;;;;28.40;11.73;;;;;;;17.20;100.00;101457.44;5204246;28;20164;-73
2023/07/13 06:34:09;;;;;;;18.23;10.00;;;;;;;17.23;100.00;101466.09;5205426;28;20388;-73
2023/07/13 06:36:40;;;;;;;21.13;10.18;;;;;;;17.13;100.00;101462.59;5196283;28;20025;-73
2023/07/13 06:39:12;;;;;;;21.90;10.75;;;;;;;17.17;100.00;101465.84;5201946;28;20075;-73
2023/07/13 06:41:43;;;;;;;21.88;10.45;;;;;;;17.17;100.00;101458.59;5205224;28;20029;-73
2023/07/13 06:44:15;;;;;;;21.25;9.77;;;;;;;17.21;100.00;101465.41;5206934;28;20033;-73
2023/07/13 06:46:46;;;;;;;19.77;10.15;;;;;;;17.22;100.00;101463.53;5204543;28;20096;-73
2023/07/13 06:49:18;;;;;;;22.83;10.52;;;;;;;17.33;100.00;101470.63;5200621;28;20026;-72
2023/07/13 06:51:49;;;;;;;19.00;10.32;;;;;;;17.40;100.00;101464.50;5197876;28;20026;-73
2023/07/13 06:54:21;;;;;;;27.38;10.73;;;;;;;17.37;100.00;101481.00;5198338;28;20034;-73
2023/07/13 06:56:52;;;;;;;24.23;10.70;;;;;;;17.47;100.00;101483.66;5200436;28;20480;-73
2023/07/13 06:59:23;;;;;;;21.35;10.13;;;;;;;17.43;100.00;101471.44;5209338;28;20530;-73
2023/07/13 07:01:55;;;;;;;18.52;10.18;;;;;;;17.56;100.00;101481.91;5197462;28;20081;-72
2023/07/13 07:04:26;;;;;;;19.25;10.52;;;;;;;17.52;100.00;101478.66;5190633;28;20048;-72
2023/07/13 07:06:58;;;;;;;23.35;10.23;;;;;;;17.57;100.00;101476.38;5196825;28;20632;-73
2023/07/13 07:09:31;;;;;;;19.23;9.30;;;;;;;17.66;100.00;101476.47;5197945;28;20038;-72
2023/07/13 07:12:03;;;;;;;18.90;9.48;;;;;;;17.71;100.00;101479.59;5192825;28;20038;-73
2023/07/13 07:14:34;;;;;;;19.17;9.50;;;;;;;17.77;100.00;101481.69;5214520;28;20025;-73
2023/07/13 07:17:06;;;;;;;15.65;8.85;;;;;;;17.78;100.00;101475.28;5203870;28;20534;-72
2023/07/13 07:19:38;;;;;;;18.92;9.30;;;;;;;17.77;100.00;101477.13;5203934;28;20030;-72
2023/07/13 07:22:09;;;;;;;17.85;8.90;;;;;;;17.91;100.00;101474.97;5208770;28;20638;-73
2023/07/13 07:24:41;;;;;;;19.88;8.88;;;;;;;17.98;100.00;101484.16;5198659;28;20117;-73
2023/07/13 07:27:12;;;;;;;18.35;8.45;;;;;;;18.04;100.00;101480.84;5201184;28;20037;-73
2023/07/13 07:29:44;;;;;;;17.02;7.95;;;;;;;18.09;100.00;101483.97;5201595;28;20025;-72
2023/07/13 07:32:15;;;;;;;20.20;9.02;;;;;;;18.14;100.00;101484.38;5204539;28;20072;-72
2023/07/13 07:34:46;;;;;;;19.33;8.57;;;;;;;18.18;100.00;101483.06;5206686;28;20030;-72
2023/07/13 07:37:18;;;;;;;14.02;8.45;;;;;;;18.39;100.00;101488.19;5207045;28;20547;-72
2023/07/13 07:39:49;;;;;;;15.02;7.60;;;;;;;18.50;100.00;101478.16;5200062;28;20390;-72
2023/07/13 07:42:21;;;;;;;17.75;8.13;;;;;;;18.52;100.00;101487.78;5205849;28;20033;-72
2023/07/13 07:44:52;;;;;;;16.45;7.60;;;;;;;18.57;100.00;101482.78;5202133;28;20032;-72
2023/07/13 07:47:24;;;;;;;14.50;7.78;;;;;;;18.62;100.00;101482.34;5213728;28;20396;-73
2023/07/13 07:49:55;;;;;;;15.32;7.25;;;;;;;18.75;100.00;101482.78;5206367;28;20036;-72
2023/07/13 07:52:26;;;;;;;14.57;7.10;;;;;;;18.83;100.00;101489.28;5201437;28;20053;-72
2023/07/13 07:54:58;;;;;;;15.27;7.15;;;;;;;18.90;100.00;101490.38;5210311;28;20029;-72
2023/07/13 07:57:29;;;;;;;12.32;6.25;;;;;;;18.95;100.00;101480.78;5205603;28;20022;-73
2023/07/13 08:00:01;;;;;;;16.42;7.18;;;;;;;18.97;100.00;101484.19;5204472;28;20030;-73
2023/07/13 08:02:32;;;;;;;12.63;6.13;;;;;;;19.04;100.00;101488.97;5205682;28;20510;-73
2023/07/13 08:05:04;;;;;;;15.80;6.38;;;;;;;18.95;100.00;101488.91;5203693;28;20045;-73
2023/07/13 08:07:37;;;;;;;12.43;5.60;;;;;;;18.98;100.00;101491.31;5201070;28;20607;-73
2023/07/13 08:10:09;;;;;;;15.55;6.47;;;;;;;18.84;100.00;101483.72;5203039;28;20379;-73
2023/07/13 08:12:40;;;;;;;14.27;5.60;;;;;;;18.88;100.00;101477.00;5206446;28;20026;-73
2023/07/13 08:15:15;;;;;;;11.75;5.70;;;;;;;18.85;100.00;101489.97;5208863;28;20041;-72
2023/07/13 08:17:48;;;;;;;12.00;5.72;;;;;;;18.97;100.00;101486.88;5204361;28;20033;-72
2023/07/13 08:20:19;;;;;;;14.77;5.65;;;;;;;19.06;100.00;101486.94;5199844;28;20055;-72
2023/07/13 08:22:51;;;;;;;11.82;6.00;;;;;;;19.14;100.00;101490.56;5210399;28;20038;-72
2023/07/13 08:25:22;;;;;;;12.88;5.82;;;;;;;19.32;100.00;101493.22;5211544;28;20392;-73
2023/07/13 08:27:54;;;;;;;13.70;5.95;;;;;;;19.38;100.00;101487.16;5206514;28;20030;-72
2023/07/13 08:30:25;;;;;;;12.75;6.05;;;;;;;19.37;100.00;101490.06;5206651;28;20038;-73
2023/07/13 08:32:57;;;;;;;12.43;5.90;;;;;;;19.26;100.00;101487.63;5214288;28;20434;-73
2023/07/13 08:35:28;;;;;;;29.17;8.15;;;;;;;19.16;100.00;101483.16;5206940;28;20106;-72
2023/07/13 08:38:00;;;;;;;18.10;6.07;;;;;;;19.20;100.00;101494.50;5210209;28;20033;-72
2023/07/13 08:40:34;;;;;;;16.02;6.43;;;;;;;19.17;100.00;101489.41;5204193;28;20018;-73
2023/07/13 08:43:13;;;;;;;10.63;5.63;;;;;;;19.17;100.00;101492.94;5208425;28;20538;-72
2023/07/13 08:45:49;;;;;;;7.90;4.78;;;;;;;19.29;100.00;101479.16;5206013;28;20044;-73
2023/07/13 08:48:26;;;;;;;12.40;5.60;;;;;;;19.39;100.00;101483.47;5210853;28;20104;-73
2023/07/13 08:51:10;;;;;;;10.00;5.70;;;;;;;19.40;100.00;101489.72;5206907;28;20223;-72
2023/07/13 08:53:52;;;;;;;12.43;5.53;;;;;;;19.33;100.00;101484.13;5214736;28;20106;-72
2023/07/13 08:56:26;;;;;;;11.40;5.90;;;;;;;19.33;100.00;101497.66;5212324;28;20030;-73
2023/07/13 08:59:04;;;;;;;9.98;5.60;;;;;;;19.39;100.00;101486.19;5201769;28;20290;-73
2023/07/13 09:01:50;;;;;;;14.02;5.53;;;;;;;19.56;100.00;101487.13;5201612;28;20049;-73
2023/07/13 09:04:44;;;;;;;10.43;5.65;;;;;;;19.81;100.00;101486.41;5209878;28;20057;-73
2023/07/13 09:07:34;;;;;;;10.40;5.07;;;;;;;19.92;100.00;101480.72;5204449;28;20120;-73
2023/07/13 09:10:05;;;;;;;13.35;5.00;;;;;;;20.06;100.00;101477.41;5203314;28;20763;-73
2023/07/13 09:12:55;;;;;;;10.95;4.93;;;;;;;20.16;100.00;101483.50;5208450;28;20113;-73
2023/07/13 09:15:32;;;;;;;10.20;4.63;;;;;;;20.26;100.00;101482.53;5207559;28;20026;-73
2023/07/13 09:18:38;;;;;;;10.88;5.35;;;;;;;20.35;100.00;101489.66;5210580;28;20025;-73
2023/07/13 09:21:19;;;;;;;14.88;5.68;;;;;;;20.29;100.00;101483.03;5204878;28;20062;-73
2023/07/13 09:24:00;;;;;;;7.95;4.78;;;;;;;20.38;100.00;101478.47;5209862;28;20548;-73
2023/07/13 09:26:33;;;;;;;10.75;4.85;;;;;;;20.43;100.00;101484.25;5208675;28;20033;-72
2023/07/13 09:29:16;;;;;;;11.20;4.93;;;;;;;20.46;100.00;101481.22;5208786;28;20029;-73
2023/07/13 09:31:54;;;;;;;9.40;4.55;;;;;;;20.53;100.00;101479.50;5207957;28;20072;-73
2023/07/13 09:34:26;;;;;;;9.05;4.80;;;;;;;20.66;100.00;101479.06;5206348;28;20049;-72
2023/07/13 09:36:57;;;;;;;8.82;4.22;;;;;;;20.75;100.00;101479.94;5209439;28;20022;-73
2023/07/13 09:39:39;;;;;;;9.63;4.50;;;;;;;20.79;100.00;101484.00;5208131;28;20034;-71
2023/07/13 09:42:22;;;;;;;8.68;4.22;;;;;;;20.76;100.00;101473.47;5209308;28;20629;-73
2023/07/13 09:44:58;;;;;;;9.45;4.72;;;;;;;20.67;100.00;101483.47;5202809;28;20109;-73
2023/07/13 09:47:32;;;;;;;7.43;4.57;;;;;;;20.75;100.00;101475.34;5205083;28;20034;-73
2023/07/13 09:50:14;;;;;;;9.27;4.32;;;;;;;20.85;100.00;101480.59;5211737;28;20175;-73
2023/07/13 09:52:48;;;;;;;8.50;4.10;;;;;;;20.95;100.00;101481.25;5205088;28;20116;-73
2023/07/13 09:55:24;;;;;;;9.25;4.03;;;;;;;20.97;100.00;101488.41;5207016;28;20060;-73
2023/07/13 09:57:56;;;;;;;7.40;3.55;;;;;;;21.04;100.00;101481.28;5206690;28;20050;-73
2023/07/13 10:00:29;;;;;;;8.35;3.95;;;;;;;21.04;100.00;101476.69;5203391;28;20054;-73
2023/07/13 10:03:24;;;;;;;8.00;3.50;;;;;;;21.11;100.00;101487.69;5203276;28;20446;-73
2023/07/13 10:06:04;;;;;;;8.13;3.45;;;;;;;21.11;100.00;101484.97;5207551;28;20050;-73
2023/07/13 10:08:36;;;;;;;7.15;3.22;;;;;;;21.11;100.00;101487.69;5205460;28;20085;-72
2023/07/13 10:11:29;;;;;;;9.27;3.40;;;;;;;21.11;100.00;101490.41;5194999;28;20033;-72
2023/07/13 10:14:07;;;;;;;14.23;3.70;;;;;;;21.15;100.00;101475.47;5203625;28;20022;-74
2023/07/13 10:16:39;;;;;;;14.65;3.58;;;;;;;;;;5204391;28;20038;-73
2023/07/13 10:19:11;;;;;;;11.30;2.97;;;;;;;21.18;100.00;101483.28;5202226;28;20113;-73
2023/07/13 10:21:54;;;;;;;9.60;2.60;;;;;;;21.30;100.00;101483.78;5212250;28;20041;-72
2023/07/13 10:24:31;;;;;;;6.38;2.50;;;;;;;21.49;100.00;101480.69;5207545;28;20145;-72
2023/07/13 10:27:20;;;;;;;9.55;2.17;;;;;;;21.66;100.00;101481.50;5204401;28;20026;-73
2023/07/13 10:30:12;;;;;;;8.43;2.40;;;;;;;21.83;100.00;101481.47;5205649;28;20038;-73
2023/07/13 10:32:44;;;;;;;6.75;2.20;;;;;;;21.96;100.00;101491.75;5208867;28;20404;-72
2023/07/13 10:35:21;;;;;;;6.50;2.17;;;;;;;21.90;100.00;101494.16;5204585;28;20030;-73
2023/07/13 10:38:06;;;;;;;5.78;2.42;;;;;;;21.83;100.00;101485.00;5207218;28;20361;-73
2023/07/13 10:40:52;;;;;;;6.85;2.90;;;;;;;21.72;100.00;101490.81;5203689;28;20030;-72
2023/07/13 10:43:31;;;;;;;6.57;2.78;;;;;;;21.53;100.00;101505.66;5201029;28;20216;-73
2023/07/13 10:46:07;;;;;;;8.27;2.90;;;;;;;21.28;100.00;101507.53;5205637;28;20030;-72
2023/07/13 10:48:41;;;;;;;8.30;3.90;;;;;;;20.93;100.00;101531.28;5214358;28;20040;-72
2023/07/13 10:51:14;;;;;;;;;;;;;;;20.97;100.00;101523.66;5208907;28;20030;-73
2023/07/13 10:53:45;;;;;;;8.02;5.05;;;;;;;20.43;100.00;101527.63;5215372;28;20019;-71
2023/07/13 10:56:27;;;;;;;9.20;5.10;;;;;;;20.26;100.00;101528.59;5209543;28;20172;-72
2023/07/13 10:59:27;;;;;;;8.45;5.35;;;;;;;20.30;100.00;101519.94;5206107;28;20025;-72
2023/07/13 11:02:01;;;;;;;9.00;5.60;;;;;;;20.16;100.00;101520.59;5207133;28;20075;-72
2023/07/13 11:04:41;;;;;;;;;;;;;;;20.31;100.00;101518.13;5208124;28;20036;-72
2023/07/13 11:07:28;;;;;;;10.00;5.53;;;;;;;20.30;100.00;101521.81;5195560;28;19921;-72
2023/07/13 11:10:05;;;;;;;8.30;5.13;;;;;;;20.47;100.00;101511.88;5193206;28;20088;-72
2023/07/13 11:12:52;;;;;;;11.40;5.40;;;;;;;20.67;100.00;101515.16;5195256;28;20121;-72
2023/07/13 11:15:33;;;;;;;11.38;5.68;;;;;;;20.85;100.00;101510.44;5201265;28;20021;-72
2023/07/13 11:18:12;;;;;;;8.52;5.00;;;;;;;21.03;100.00;101507.53;5198840;28;20503;-72
2023/07/13 11:20:44;;;;;;;9.25;4.93;;;;;;;21.27;100.00;101501.25;5196276;28;20030;-72
2023/07/13 11:23:18;;;;;;;10.45;5.43;;;;;;;21.31;100.00;101502.59;5198223;28;20104;-72
2023/07/13 11:25:49;;;;;;;10.07;5.55;;;;;;;21.54;100.00;101497.34;5195416;28;20026;-72
2023/07/13 11:28:24;;;;;;;9.25;4.90;;;;;;;21.71;100.00;101509.00;5204271;28;20029;-73
2023/07/13 11:30:56;;;;;;;9.55;5.45;;;;;;;21.96;100.00;101505.31;5206484;28;20236;-72
2023/07/13 11:33:30;;;;;;;9.73;5.35;;;;;;;22.12;100.00;101513.41;5204635;28;20037;-72
2023/07/13 11:36:15;;;;;;;11.45;4.63;;;;;;;22.15;100.00;101513.09;5207204;28;20052;-73
2023/07/13 11:38:58;;;;;;;8.65;4.40;;;;;;;22.22;100.00;101508.59;5202815;28;20027;-72